createdAt,value
2023-05-11T04:15:25.979Z,220.00
2023-05-11T04:16:26.885Z,228.00
2023-05-11T04:17:25.962Z,232.00
2023-05-11T04:18:26.078Z,236.00
2023-05-11T04:19:25.939Z,240.00
2023-05-11T04:20:25.921Z,248.00
2023-05-11T04:21:25.924Z,256.00
2023-05-11T04:22:25.886Z,276.00
2023-05-11T04:23:25.878Z,292.00
2023-05-11T04:24:25.865Z,300.00
2023-05-11T04:25:25.849Z,304.00
2023-05-11T04:26:25.828Z,312.00
2023-05-11T04:27:25.832Z,320.00
2023-05-11T04:28:25.818Z,332.00
2023-05-11T04:29:25.795Z,336.00
2023-05-11T04:30:25.820Z,340.00
2023-05-11T04:31:25.829Z,344.00
2023-05-11T04:32:25.811Z,352.00
2023-05-11T04:33:25.769Z,364.00
2023-05-11T04:34:25.749Z,380.00
2023-05-11T04:35:25.722Z,404.00
2023-05-11T04:36:25.705Z,432.00
2023-05-11T04:37:25.705Z,468.00
2023-05-11T04:38:25.691Z,508.00
2023-05-11T04:39:25.665Z,548.00
2023-05-11T04:40:25.652Z,584.00
2023-05-11T04:41:25.638Z,616.00
2023-05-11T04:42:25.697Z,656.00
2023-05-11T04:43:25.605Z,700.00
2023-05-11T04:44:25.597Z,756.00
2023-05-11T04:45:25.580Z,812.00
2023-05-11T04:46:25.611Z,884.00
2023-05-11T04:47:25.631Z,968.00
2023-05-11T04:48:25.558Z,1052.00
2023-05-11T04:49:25.540Z,1132.00
2023-05-11T04:50:25.528Z,1200.00
2023-05-11T04:51:25.517Z,1260.00
2023-05-11T04:52:25.496Z,1308.00
2023-05-11T04:53:25.474Z,1336.00
2023-05-11T04:54:25.462Z,1356.00
2023-05-11T04:55:25.484Z,1380.00
2023-05-11T04:56:25.458Z,1404.00
2023-05-11T04:57:25.422Z,1416.00
2023-05-11T04:58:25.409Z,1420.00
2023-05-11T04:59:25.445Z,1436.00
2023-05-11T05:00:25.397Z,1452.00
2023-05-11T05:01:25.409Z,1448.00
2023-05-11T05:02:25.393Z,1368.00
2023-05-11T05:03:25.411Z,1256.00
2023-05-11T05:04:25.328Z,1188.00
2023-05-11T05:05:25.348Z,1164.00
2023-05-11T05:06:25.310Z,1164.00
2023-05-11T05:07:25.287Z,1184.00
2023-05-11T05:08:25.279Z,1204.00
2023-05-11T05:09:25.260Z,1224.00
2023-05-11T05:10:25.261Z,1240.00
2023-05-11T05:11:25.246Z,1260.00
2023-05-11T05:12:25.226Z,1292.00
2023-05-11T05:13:25.211Z,1332.00
2023-05-11T05:14:26.159Z,1372.00
2023-05-11T05:15:25.195Z,1412.00
2023-05-11T05:16:25.213Z,1460.00
2023-05-11T05:17:25.182Z,1488.00
2023-05-11T05:18:25.204Z,1504.00
2023-05-11T05:19:25.149Z,1532.00
2023-05-11T05:20:25.135Z,1580.00
2023-05-11T05:21:25.104Z,1616.00
2023-05-11T05:22:25.104Z,1616.00
2023-05-11T05:23:25.081Z,1564.00
2023-05-11T05:24:25.080Z,1464.00
2023-05-11T05:25:25.060Z,1344.00
2023-05-11T05:26:25.042Z,1276.00
2023-05-11T05:27:25.022Z,1252.00
2023-05-11T05:28:25.029Z,1272.00
2023-05-11T05:29:25.009Z,1312.00
2023-05-11T05:30:24.994Z,1348.00
2023-05-11T05:31:25.079Z,1376.00
2023-05-11T05:32:25.008Z,1412.00
2023-05-11T05:33:24.947Z,1432.00
2023-05-11T05:34:24.933Z,1408.00
2023-05-11T05:35:24.925Z,1380.00
2023-05-11T05:36:24.903Z,1356.00
2023-05-11T05:37:24.902Z,1328.00
2023-05-11T05:38:24.887Z,1296.00
2023-05-11T05:39:24.867Z,1272.00
2023-05-11T05:40:24.855Z,1248.00
2023-05-11T05:41:24.862Z,1284.00
2023-05-11T05:42:24.838Z,1352.00
2023-05-11T05:43:24.834Z,1448.00
2023-05-11T05:44:24.795Z,1500.00
2023-05-11T05:45:24.797Z,1524.00
2023-05-11T05:46:24.804Z,1556.00
2023-05-11T05:47:24.820Z,1616.00
2023-05-11T05:48:24.747Z,1728.00
2023-05-11T05:49:24.739Z,1944.00
2023-05-11T05:50:24.716Z,2156.00
2023-05-11T05:51:24.714Z,2340.00
2023-05-11T05:52:24.703Z,2340.00
2023-05-11T05:53:24.685Z,2164.00
2023-05-11T05:54:24.665Z,2080.00
2023-05-11T05:55:24.656Z,1992.00
2023-05-11T05:56:24.657Z,2024.00
2023-05-11T05:57:24.630Z,2000.00
2023-05-11T05:58:24.621Z,2036.00
2023-05-11T05:59:24.612Z,2052.00
2023-05-11T06:00:24.588Z,2016.00
2023-05-11T06:01:24.704Z,1956.00
2023-05-11T06:02:24.621Z,2012.00
2023-05-11T06:03:26.447Z,2168.00
2023-05-11T06:04:24.632Z,2416.00
2023-05-11T06:05:24.545Z,2628.00
2023-05-11T06:06:24.513Z,2720.00
2023-05-11T06:07:24.502Z,2736.00
2023-05-11T06:08:24.475Z,2704.00
2023-05-11T06:09:24.473Z,2660.00
2023-05-11T06:10:24.465Z,2604.00
2023-05-11T06:11:24.461Z,2672.00
2023-05-11T06:12:24.449Z,2412.00
2023-05-11T06:13:24.422Z,2292.00
2023-05-11T06:14:24.405Z,2280.00
2023-05-11T06:15:24.398Z,2228.00
2023-05-11T06:16:24.397Z,2308.00
2023-05-11T06:17:24.418Z,2428.00
2023-05-11T06:18:24.385Z,2520.00
2023-05-11T06:19:24.338Z,2588.00
2023-05-11T06:20:24.370Z,2640.00
2023-05-11T06:21:24.315Z,2708.00
2023-05-11T06:22:24.299Z,2796.00
2023-05-11T06:23:24.290Z,2916.00
2023-05-11T06:24:24.280Z,3148.00
2023-05-11T06:25:24.273Z,3396.00
2023-05-11T06:26:24.255Z,3564.00
2023-05-11T06:27:24.240Z,3576.00
2023-05-11T06:28:24.217Z,3556.00
2023-05-11T06:29:24.234Z,3608.00
2023-05-11T06:30:24.209Z,3684.00
2023-05-11T06:31:24.242Z,3728.00
2023-05-11T06:32:24.213Z,3764.00
2023-05-11T06:33:24.159Z,3824.00
2023-05-11T06:34:24.153Z,3908.00
2023-05-11T06:35:24.143Z,3984.00
2023-05-11T06:36:24.133Z,3964.00
2023-05-11T06:37:24.117Z,3884.00
2023-05-11T06:38:24.117Z,3836.00
2023-05-11T06:39:24.102Z,3868.00
2023-05-11T06:40:24.078Z,3808.00
2023-05-11T06:41:24.054Z,3776.00
2023-05-11T06:42:24.043Z,3740.00
2023-05-11T06:43:24.053Z,3716.00
2023-05-11T06:44:24.011Z,3664.00
2023-05-11T06:45:24.052Z,3692.00
2023-05-11T06:46:24.024Z,3700.00
2023-05-11T06:47:24.017Z,3732.00
2023-05-11T06:48:23.979Z,3820.00
2023-05-11T06:49:23.963Z,3900.00
2023-05-11T06:50:27.164Z,4156.00
2023-05-11T06:51:23.945Z,4436.00
2023-05-11T06:52:23.914Z,4660.00
2023-05-11T06:53:23.935Z,5368.00
2023-05-11T06:54:23.883Z,5596.00
2023-05-11T06:55:23.875Z,5596.00
2023-05-11T06:56:23.867Z,5280.00
2023-05-11T06:57:23.867Z,5060.00
2023-05-11T06:58:23.829Z,4952.00
2023-05-11T06:59:23.843Z,4936.00
2023-05-11T07:00:23.801Z,5016.00
2023-05-11T07:01:30.877Z,4932.00
2023-05-11T07:02:23.799Z,4980.00
2023-05-11T07:03:23.773Z,5128.00
2023-05-11T07:04:23.776Z,5372.00
2023-05-11T07:05:23.742Z,5364.00
2023-05-11T07:06:23.729Z,5524.00
2023-05-11T07:07:23.736Z,5704.00
2023-05-11T07:08:23.697Z,5908.00
2023-05-11T07:09:23.717Z,6148.00
2023-05-11T07:10:23.672Z,6328.00
2023-05-11T07:11:23.678Z,7024.00
2023-05-11T07:12:23.637Z,6688.00
2023-05-11T07:13:23.632Z,6352.00
2023-05-11T07:14:23.618Z,6340.00
2023-05-11T07:15:23.614Z,6272.00
2023-05-11T07:16:23.619Z,6136.00
2023-05-11T07:17:23.664Z,6044.00
2023-05-11T07:18:23.581Z,6024.00
2023-05-11T07:19:23.558Z,6092.00
2023-05-11T07:20:23.552Z,6060.00
2023-05-11T07:21:23.544Z,5944.00
2023-05-11T07:22:23.603Z,5792.00
2023-05-11T07:23:23.491Z,5636.00
2023-05-11T07:24:23.478Z,5512.00
2023-05-11T07:25:23.499Z,5436.00
2023-05-11T07:26:23.472Z,5324.00
2023-05-11T07:27:23.445Z,5112.00
2023-05-11T07:28:23.421Z,5044.00
2023-05-11T07:29:23.414Z,5124.00
2023-05-11T07:30:23.769Z,5132.00
2023-05-11T07:31:23.432Z,5068.00
2023-05-11T07:32:23.442Z,4912.00
2023-05-11T07:33:23.359Z,4584.00
2023-05-11T07:34:23.370Z,4228.00
2023-05-11T07:35:24.136Z,3992.00
2023-05-11T07:36:23.320Z,3760.00
2023-05-11T07:37:23.315Z,3596.00
2023-05-11T07:38:23.295Z,3412.00
2023-05-11T07:39:23.324Z,3296.00
2023-05-11T07:40:23.297Z,3192.00
2023-05-11T07:41:23.260Z,3104.00
2023-05-11T07:42:23.265Z,3064.00
2023-05-11T07:43:23.242Z,2980.00
2023-05-11T07:44:23.237Z,2936.00
2023-05-11T07:45:23.238Z,3000.00
2023-05-11T07:46:23.269Z,3224.00
2023-05-11T07:47:23.208Z,3444.00
2023-05-11T07:48:23.161Z,3624.00
2023-05-11T07:49:31.405Z,3684.00
2023-05-11T07:50:24.830Z,3564.00
2023-05-11T07:51:23.124Z,3400.00
2023-05-11T07:52:23.110Z,3320.00
2023-05-11T07:53:23.102Z,3312.00
2023-05-11T07:54:23.089Z,3376.00
2023-05-11T07:55:23.093Z,3416.00
2023-05-11T07:56:23.048Z,3448.00
2023-05-11T07:57:23.082Z,3472.00
2023-05-11T07:58:23.041Z,3448.00
2023-05-11T07:59:23.010Z,3344.00
2023-05-11T08:00:23.006Z,3264.00
2023-05-11T08:01:22.992Z,3200.00
2023-05-11T08:02:23.043Z,3116.00
2023-05-11T08:03:23.096Z,3048.00
2023-05-11T08:04:22.944Z,3012.00
2023-05-11T08:05:23.062Z,2920.00
2023-05-11T08:06:22.966Z,2752.00
2023-05-11T08:07:22.924Z,2616.00
2023-05-11T08:08:22.899Z,2516.00
2023-05-11T08:09:22.897Z,2408.00
2023-05-11T08:10:22.909Z,2332.00
2023-05-11T08:11:22.859Z,2228.00
2023-05-11T08:12:22.847Z,2172.00
2023-05-11T08:13:23.113Z,2132.00
2023-05-11T08:14:22.811Z,2108.00
2023-05-11T08:15:22.802Z,2116.00
2023-05-11T08:16:22.827Z,2120.00
2023-05-11T08:17:22.787Z,2112.00
2023-05-11T08:18:22.794Z,2056.00
2023-05-11T08:19:22.748Z,2000.00
2023-05-11T08:20:22.746Z,1992.00
2023-05-11T08:21:22.731Z,2008.00
2023-05-11T08:22:22.708Z,2016.00
2023-05-11T08:23:22.700Z,1980.00
2023-05-11T08:24:22.684Z,1900.00
2023-05-11T08:25:22.678Z,1828.00
2023-05-11T08:26:22.666Z,1792.00
2023-05-11T08:27:22.645Z,1780.00
2023-05-11T08:28:22.645Z,1824.00
2023-05-11T08:29:22.620Z,1908.00
2023-05-11T08:30:22.906Z,1960.00
2023-05-11T08:31:22.674Z,1988.00
2023-05-11T08:32:22.728Z,2004.00
2023-05-11T08:33:36.654Z,1968.00
2023-05-11T08:34:23.752Z,1880.00
2023-05-11T08:35:22.976Z,1776.00
2023-05-11T08:36:22.529Z,1668.00
2023-05-11T08:37:22.505Z,1580.00
2023-05-11T08:38:22.501Z,1520.00
2023-05-11T08:39:38.873Z,1492.00
2023-05-11T08:40:23.473Z,1492.00
2023-05-11T08:41:22.483Z,1520.00
2023-05-11T08:42:22.434Z,1588.00
2023-05-11T08:43:22.475Z,1708.00
2023-05-11T08:44:22.421Z,1904.00
2023-05-11T08:45:22.490Z,2096.00
2023-05-11T08:46:22.454Z,2220.00
2023-05-11T08:47:23.788Z,2292.00
2023-05-11T08:48:22.355Z,2296.00
2023-05-11T08:49:22.423Z,2248.00
2023-05-11T08:50:22.422Z,2168.00
2023-05-11T08:51:22.314Z,2084.00
2023-05-11T08:52:22.299Z,1992.00
2023-05-11T08:53:22.317Z,1884.00
2023-05-11T08:54:22.308Z,1764.00
2023-05-11T08:55:22.274Z,1640.00
2023-05-11T08:56:22.238Z,1572.00
2023-05-11T08:57:22.234Z,1548.00
2023-05-11T08:58:22.239Z,1540.00
2023-05-11T08:59:22.219Z,1532.00
2023-05-11T09:00:22.187Z,1500.00
2023-05-11T09:01:22.220Z,1508.00
2023-05-11T09:02:22.229Z,1496.00
2023-05-11T09:03:22.164Z,1504.00
2023-05-11T09:04:22.155Z,1528.00
2023-05-11T09:05:22.365Z,1580.00
2023-05-11T09:06:22.113Z,1660.00
2023-05-11T09:07:22.106Z,1740.00
2023-05-11T09:08:22.127Z,1836.00
2023-05-11T09:09:22.078Z,1944.00
2023-05-11T09:10:22.057Z,2084.00
2023-05-11T09:11:22.058Z,2228.00
2023-05-11T09:12:22.029Z,2356.00
2023-05-11T09:13:22.039Z,2472.00
2023-05-11T09:14:27.144Z,2580.00
2023-05-11T09:15:23.009Z,2640.00
2023-05-11T09:16:36.086Z,2684.00
2023-05-11T09:17:23.024Z,2688.00
2023-05-11T09:18:21.983Z,2676.00
2023-05-11T09:19:21.996Z,2652.00
2023-05-11T09:20:21.950Z,2636.00
2023-05-11T09:21:21.921Z,2648.00
2023-05-11T09:22:21.910Z,2700.00
2023-05-11T09:23:21.904Z,2788.00
2023-05-11T09:24:21.901Z,2900.00
2023-05-11T09:25:21.951Z,3024.00
2023-05-11T09:26:21.846Z,3160.00
2023-05-11T09:27:21.852Z,3268.00
2023-05-11T09:28:25.482Z,3372.00
2023-05-11T09:29:21.818Z,3472.00
2023-05-11T09:30:22.508Z,3604.00
2023-05-11T09:31:21.840Z,3716.00
2023-05-11T09:32:21.806Z,3808.00
2023-05-11T09:33:21.774Z,3880.00
2023-05-11T09:34:21.750Z,3972.00
2023-05-11T09:35:21.979Z,4056.00
2023-05-11T09:36:21.752Z,4212.00
2023-05-11T09:37:21.712Z,4308.00
2023-05-11T09:38:21.712Z,4384.00
2023-05-11T09:39:35.019Z,4500.00
2023-05-11T09:40:27.453Z,4620.00
2023-05-11T09:41:22.676Z,4752.00
2023-05-11T09:42:21.682Z,4844.00
2023-05-11T09:43:21.632Z,4940.00
2023-05-11T09:44:21.618Z,4964.00
2023-05-11T09:45:21.619Z,4968.00
2023-05-11T09:46:21.698Z,4952.00
2023-05-11T09:47:21.584Z,4944.00
2023-05-11T09:48:21.611Z,4928.00
2023-05-11T09:49:21.556Z,4940.00
2023-05-11T09:50:26.210Z,4980.00
2023-05-11T09:51:22.522Z,5068.00
2023-05-11T09:52:21.645Z,5196.00
2023-05-11T09:53:21.507Z,5360.00
2023-05-11T09:54:21.498Z,5572.00
2023-05-11T09:55:21.499Z,5760.00
2023-05-11T09:56:21.469Z,5932.00
2023-05-11T09:57:21.449Z,6104.00
2023-05-11T09:58:21.435Z,6264.00
2023-05-11T09:59:21.430Z,6388.00
2023-05-11T10:00:21.421Z,6492.00
2023-05-11T10:01:21.399Z,6588.00
2023-05-11T10:02:21.578Z,6688.00
2023-05-11T10:03:21.437Z,6784.00
2023-05-11T10:04:23.428Z,6848.00
2023-05-11T10:05:21.380Z,6860.00
2023-05-11T10:06:21.321Z,6812.00
2023-05-11T10:07:21.308Z,6712.00
2023-05-11T10:08:21.293Z,6564.00
2023-05-11T10:09:21.290Z,6412.00
2023-05-11T10:10:21.288Z,6292.00
2023-05-11T10:11:21.267Z,6180.00
2023-05-11T10:12:21.269Z,6112.00
2023-05-11T10:13:21.255Z,6136.00
2023-05-11T10:14:21.219Z,6232.00
2023-05-11T10:15:21.273Z,6356.00
2023-05-11T10:16:21.270Z,6480.00
2023-05-11T10:17:21.198Z,6596.00
2023-05-11T10:18:21.302Z,6712.00
2023-05-11T10:19:21.158Z,6824.00
2023-05-11T10:20:21.478Z,6972.00
2023-05-11T10:21:21.124Z,7144.00
2023-05-11T10:22:21.201Z,7420.00
2023-05-11T10:23:21.118Z,7756.00
2023-05-11T10:24:21.146Z,8120.00
2023-05-11T10:25:21.080Z,8472.00
2023-05-11T10:26:21.063Z,8860.00
2023-05-11T10:27:21.058Z,9244.00
2023-05-11T10:28:21.057Z,9768.00
2023-05-11T10:29:21.023Z,10336.00
2023-05-11T10:30:21.228Z,11004.00
2023-05-11T10:31:21.025Z,11476.00
2023-05-11T10:32:21.119Z,11544.00
2023-05-11T10:33:20.956Z,11844.00
2023-05-11T10:34:20.940Z,12288.00
2023-05-11T10:35:20.937Z,12884.00
2023-05-11T10:36:20.914Z,13408.00
2023-05-11T10:37:20.937Z,13544.00
2023-05-11T10:38:20.885Z,13916.00
2023-05-11T10:39:20.888Z,14880.00
2023-05-11T10:40:21.105Z,16064.00
2023-05-11T10:41:20.870Z,16416.00
2023-05-11T10:42:20.851Z,16256.00
2023-05-11T10:43:20.824Z,15904.00
2023-05-11T10:44:20.817Z,14784.00
2023-05-11T10:45:20.798Z,15264.00
2023-05-11T10:46:20.859Z,14976.00
2023-05-11T10:47:20.778Z,15520.00
2023-05-11T10:48:20.764Z,15424.00
2023-05-11T10:49:20.749Z,15328.00
2023-05-11T10:50:20.973Z,14880.00
2023-05-11T10:51:21.596Z,13212.00
2023-05-11T10:52:20.844Z,11784.00
2023-05-11T10:53:20.706Z,11608.00
2023-05-11T10:54:20.692Z,11656.00
2023-05-11T10:55:20.777Z,11120.00
2023-05-11T10:56:20.653Z,11084.00
2023-05-11T10:57:20.649Z,9972.00
2023-05-11T10:58:20.629Z,9300.00
2023-05-11T10:59:20.624Z,8676.00
2023-05-11T11:00:20.979Z,9064.00
2023-05-11T11:01:20.676Z,10244.00
2023-05-11T11:02:20.581Z,10536.00
2023-05-11T11:03:20.573Z,9788.00
2023-05-11T11:04:20.605Z,8660.00
2023-05-11T11:05:20.852Z,7644.00
2023-05-11T11:06:20.545Z,7820.00
2023-05-11T11:07:20.519Z,8648.00
2023-05-11T11:08:20.491Z,9852.00
2023-05-11T11:09:20.518Z,10672.00
2023-05-11T11:10:20.703Z,10912.00
2023-05-11T11:11:20.489Z,10904.00
2023-05-11T11:12:20.435Z,10248.00
2023-05-11T11:13:20.437Z,9112.00
2023-05-11T11:14:20.433Z,8484.00
2023-05-11T11:15:20.519Z,8976.00
2023-05-11T11:16:20.396Z,9476.00
2023-05-11T11:17:20.441Z,9864.00
2023-05-11T11:18:20.477Z,10304.00
2023-05-11T11:19:20.381Z,10344.00
2023-05-11T11:20:20.343Z,10000.00
2023-05-11T11:21:20.334Z,9964.00
2023-05-11T11:22:20.336Z,10248.00
2023-05-11T11:23:20.321Z,10268.00
2023-05-11T11:24:20.310Z,9840.00
2023-05-11T11:25:20.467Z,9476.00
2023-05-11T11:26:20.265Z,9288.00
2023-05-11T11:27:20.260Z,9160.00
2023-05-11T11:28:20.243Z,9048.00
2023-05-11T11:29:20.227Z,9236.00
2023-05-11T11:30:20.285Z,9336.00
2023-05-11T11:31:20.256Z,9484.00
2023-05-11T11:32:20.187Z,9580.00
2023-05-11T11:33:20.204Z,9644.00
2023-05-11T11:34:20.164Z,9620.00
2023-05-11T11:35:20.292Z,9488.00
2023-05-11T11:36:20.199Z,9416.00
2023-05-11T11:37:20.138Z,9376.00
2023-05-11T11:38:20.108Z,9328.00
2023-05-11T11:39:20.129Z,9152.00
2023-05-11T11:40:20.080Z,9100.00
2023-05-11T11:41:20.071Z,9020.00
2023-05-11T11:42:20.066Z,8908.00
2023-05-11T11:43:20.053Z,8828.00
2023-05-11T11:44:20.026Z,8744.00
2023-05-11T11:45:20.298Z,8752.00
2023-05-11T11:46:20.091Z,8636.00
2023-05-11T11:47:20.008Z,8576.00
2023-05-11T11:48:19.973Z,8512.00
2023-05-11T11:49:19.971Z,8272.00
2023-05-11T11:50:19.943Z,8500.00
2023-05-11T11:51:19.951Z,8248.00
2023-05-11T11:52:19.932Z,8044.00
2023-05-11T11:53:19.909Z,8156.00
2023-05-11T11:54:19.889Z,7928.00
2023-05-11T11:55:20.051Z,7976.00
2023-05-11T11:56:19.879Z,8384.00
2023-05-11T11:57:19.856Z,8384.00
2023-05-11T11:58:19.842Z,8720.00
2023-05-11T11:59:19.831Z,9324.00
2023-05-11T12:00:19.812Z,9772.00
2023-05-11T12:01:19.830Z,9988.00
2023-05-11T12:02:19.787Z,10108.00
2023-05-11T12:03:19.889Z,10276.00
2023-05-11T12:04:19.905Z,10636.00
2023-05-11T12:05:20.345Z,10776.00
2023-05-11T12:06:19.748Z,10920.00
2023-05-11T12:07:19.738Z,11104.00
2023-05-11T12:08:19.709Z,10980.00
2023-05-11T12:09:19.728Z,11188.00
2023-05-11T12:10:19.707Z,11416.00
2023-05-11T12:11:19.676Z,11620.00
2023-05-11T12:12:19.655Z,11856.00
2023-05-11T12:13:19.640Z,11272.00
2023-05-11T12:14:19.667Z,10912.00
2023-05-11T12:15:19.772Z,9688.00
2023-05-11T12:16:19.642Z,9196.00
2023-05-11T12:17:19.588Z,8636.00
2023-05-11T12:18:19.593Z,8192.00
2023-05-11T12:19:19.648Z,7856.00
2023-05-11T12:20:19.559Z,7568.00
2023-05-11T12:21:19.535Z,7528.00
2023-05-11T12:22:19.527Z,7876.00
2023-05-11T12:23:19.513Z,8252.00
2023-05-11T12:24:19.504Z,8496.00
2023-05-11T12:25:19.712Z,8348.00
2023-05-11T12:26:19.489Z,8048.00
2023-05-11T12:27:19.462Z,7768.00
2023-05-11T12:28:19.447Z,7800.00
2023-05-11T12:29:19.443Z,7864.00
2023-05-11T12:30:19.412Z,7744.00
2023-05-11T12:31:19.440Z,7664.00
2023-05-11T12:32:19.389Z,7812.00
2023-05-11T12:33:19.409Z,7876.00
2023-05-11T12:34:19.405Z,7860.00
2023-05-11T12:35:19.639Z,7860.00
2023-05-11T12:36:19.342Z,7816.00
2023-05-11T12:37:19.330Z,7700.00
2023-05-11T12:38:19.322Z,7608.00
2023-05-11T12:39:19.309Z,7912.00
2023-05-11T12:40:19.295Z,8236.00
2023-05-11T12:41:19.276Z,8448.00
2023-05-11T12:42:19.262Z,8492.00
2023-05-11T12:43:19.264Z,8424.00
2023-05-11T12:44:19.234Z,8288.00
2023-05-11T12:45:19.513Z,8208.00
2023-05-11T12:46:19.266Z,8140.00
2023-05-11T12:47:19.216Z,8032.00
2023-05-11T12:48:19.198Z,8028.00
2023-05-11T12:49:24.651Z,8052.00
2023-05-11T12:50:20.154Z,8312.00
2023-05-11T12:51:19.146Z,8668.00
2023-05-11T12:52:19.138Z,8884.00
2023-05-11T12:53:19.114Z,9108.00
2023-05-11T12:54:19.119Z,9188.00
2023-05-11T12:55:19.255Z,9364.00
2023-05-11T12:56:19.083Z,9544.00
2023-05-11T12:57:19.090Z,9256.00
2023-05-11T12:58:19.059Z,8600.00
2023-05-11T12:59:19.041Z,8420.00
2023-05-11T13:00:21.167Z,8060.00
2023-05-11T13:01:19.085Z,8136.00
2023-05-11T13:02:19.092Z,8316.00
2023-05-11T13:03:26.114Z,8036.00
2023-05-11T13:04:18.982Z,7812.00
2023-05-11T13:05:19.183Z,7788.00
2023-05-11T13:06:18.972Z,8600.00
2023-05-11T13:07:18.940Z,9460.00
2023-05-11T13:08:18.929Z,9596.00
2023-05-11T13:09:18.904Z,10312.00
2023-05-11T13:10:18.912Z,10840.00
2023-05-11T13:11:18.901Z,10820.00
2023-05-11T13:12:18.882Z,10260.00
2023-05-11T13:13:18.894Z,9772.00
2023-05-11T13:14:18.853Z,9312.00
2023-05-11T13:15:19.023Z,9168.00
2023-05-11T13:16:18.851Z,9576.00
2023-05-11T13:17:18.804Z,9328.00
2023-05-11T13:18:18.972Z,9188.00
2023-05-11T13:19:18.774Z,9092.00
2023-05-11T13:20:18.801Z,8960.00
2023-05-11T13:21:18.748Z,8852.00
2023-05-11T13:22:18.743Z,8956.00
2023-05-11T13:23:18.714Z,8400.00
2023-05-11T13:24:18.738Z,8080.00
2023-05-11T13:25:19.049Z,7644.00
2023-05-11T13:26:18.689Z,6776.00
2023-05-11T13:27:18.668Z,6332.00
2023-05-11T13:28:18.665Z,6424.00
2023-05-11T13:29:18.702Z,6448.00
2023-05-11T13:30:18.679Z,6496.00
2023-05-11T13:31:18.761Z,6068.00
2023-05-11T13:32:18.664Z,5612.00
2023-05-11T13:33:18.643Z,5336.00
2023-05-11T13:34:18.601Z,5300.00
2023-05-11T13:35:18.739Z,5588.00
2023-05-11T13:36:18.562Z,5852.00
2023-05-11T13:37:18.544Z,6076.00
2023-05-11T13:38:18.637Z,6244.00
2023-05-11T13:39:18.518Z,6172.00
2023-05-11T13:40:18.510Z,5836.00
2023-05-11T13:41:18.488Z,6016.00
2023-05-11T13:42:18.481Z,6024.00
2023-05-11T13:43:18.498Z,6056.00
2023-05-11T13:44:18.465Z,5920.00
2023-05-11T13:45:18.687Z,5724.00
2023-05-11T13:46:18.467Z,5644.00
2023-05-11T13:47:18.413Z,5576.00
2023-05-11T13:48:18.626Z,5392.00
2023-05-11T13:49:18.378Z,5208.00
2023-05-11T13:50:18.377Z,4764.00
2023-05-11T13:51:18.361Z,4544.00
2023-05-11T13:52:18.362Z,4668.00
2023-05-11T13:53:18.646Z,4808.00
2023-05-11T13:54:18.319Z,4724.00
2023-05-11T13:55:18.649Z,4584.00
2023-05-11T13:56:18.340Z,4380.00
2023-05-11T13:57:18.340Z,4056.00
2023-05-11T13:58:18.295Z,3832.00
2023-05-11T13:59:18.253Z,3776.00
2023-05-11T14:00:18.258Z,3780.00
2023-05-11T14:01:18.270Z,3828.00
2023-05-11T14:02:19.149Z,3932.00
2023-05-11T14:03:18.262Z,4008.00
2023-05-11T14:04:18.188Z,4084.00
2023-05-11T14:05:18.522Z,4224.00
2023-05-11T14:06:18.158Z,4452.00
2023-05-11T14:07:18.165Z,4712.00
2023-05-11T14:08:18.129Z,4944.00
2023-05-11T14:09:18.131Z,5140.00
2023-05-11T14:10:18.138Z,5264.00
2023-05-11T14:11:18.106Z,5300.00
2023-05-11T14:12:18.105Z,5304.00
2023-05-11T14:13:18.068Z,5216.00
2023-05-11T14:14:18.061Z,5196.00
2023-05-11T14:15:18.278Z,5200.00
2023-05-11T14:16:18.043Z,5160.00
2023-05-11T14:17:18.105Z,5112.00
2023-05-11T14:18:18.165Z,5056.00
2023-05-11T14:19:18.091Z,4976.00
2023-05-11T14:20:17.972Z,4884.00
2023-05-11T14:21:17.999Z,4760.00
2023-05-11T14:22:17.952Z,4548.00
2023-05-11T14:23:17.940Z,4192.00
2023-05-11T14:24:17.926Z,3868.00
2023-05-11T14:25:18.131Z,3704.00
2023-05-11T14:26:17.912Z,3652.00
2023-05-11T14:27:17.923Z,3580.00
2023-05-11T14:28:17.868Z,3532.00
2023-05-11T14:29:17.890Z,3556.00
2023-05-11T14:30:17.858Z,3608.00
2023-05-11T14:31:17.884Z,3620.00
2023-05-11T14:32:17.813Z,3576.00
2023-05-11T14:33:17.802Z,3484.00
2023-05-11T14:34:17.785Z,3416.00
2023-05-11T14:35:18.111Z,3404.00
2023-05-11T14:36:17.768Z,3372.00
2023-05-11T14:37:17.750Z,3332.00
2023-05-11T14:38:17.761Z,3348.00
2023-05-11T14:39:17.720Z,3364.00
2023-05-11T14:40:17.719Z,3288.00
2023-05-11T14:41:17.706Z,3212.00
2023-05-11T14:42:17.688Z,3128.00
2023-05-11T14:43:17.691Z,3088.00
2023-05-11T14:44:17.678Z,3144.00
2023-05-11T14:45:17.785Z,3224.00
2023-05-11T14:46:17.665Z,3300.00
2023-05-11T14:47:17.622Z,3496.00
2023-05-11T14:48:17.602Z,3792.00
2023-05-11T14:49:17.603Z,4080.00
2023-05-11T14:50:17.575Z,4280.00
2023-05-11T14:51:17.562Z,4460.00
2023-05-11T14:52:17.549Z,4600.00
2023-05-11T14:53:17.546Z,4680.00
2023-05-11T14:54:17.540Z,4688.00
2023-05-11T14:55:17.682Z,4600.00
2023-05-11T14:56:17.499Z,4528.00
2023-05-11T14:57:17.496Z,4480.00
2023-05-11T14:58:17.489Z,4488.00
2023-05-11T14:59:17.480Z,4500.00
2023-05-11T15:00:17.445Z,4404.00
2023-05-11T15:01:17.480Z,4276.00
2023-05-11T15:02:17.415Z,4088.00
2023-05-11T15:03:17.431Z,4084.00
2023-05-11T15:04:17.500Z,4072.00
2023-05-11T15:05:17.658Z,4028.00
2023-05-11T15:06:17.359Z,3972.00
2023-05-11T15:07:17.363Z,3776.00
2023-05-11T15:08:29.176Z,3568.00
2023-05-11T15:09:18.324Z,3472.00
2023-05-11T15:10:17.324Z,3536.00
2023-05-11T15:11:17.301Z,3540.00
2023-05-11T15:12:17.298Z,3516.00
2023-05-11T15:13:17.304Z,3600.00
2023-05-11T15:14:17.254Z,3572.00
2023-05-11T15:15:17.379Z,3428.00
2023-05-11T15:16:17.271Z,3300.00
2023-05-11T15:17:17.233Z,3340.00
2023-05-11T15:18:17.199Z,3352.00
2023-05-11T15:19:17.501Z,3300.00
2023-05-11T15:20:17.182Z,3008.00
2023-05-11T15:21:17.160Z,2688.00
2023-05-11T15:22:17.225Z,2452.00
2023-05-11T15:23:17.396Z,2288.00
2023-05-11T15:24:17.121Z,2268.00
2023-05-11T15:25:17.306Z,2260.00
2023-05-11T15:26:17.112Z,2224.00
2023-05-11T15:27:17.230Z,2240.00
2023-05-11T15:28:17.069Z,2280.00
2023-05-11T15:29:17.096Z,2340.00
2023-05-11T15:30:17.051Z,2384.00
2023-05-11T15:31:17.128Z,2276.00
2023-05-11T15:32:17.029Z,1960.00
2023-05-11T15:33:17.151Z,1828.00
2023-05-11T15:34:16.986Z,1864.00
2023-05-11T15:35:17.420Z,1988.00
2023-05-11T15:36:16.977Z,1976.00
2023-05-11T15:37:16.959Z,1900.00
2023-05-11T15:38:16.945Z,1948.00
2023-05-11T15:39:16.935Z,2104.00
2023-05-11T15:40:16.923Z,2276.00
2023-05-11T15:41:16.918Z,2456.00
2023-05-11T15:42:16.881Z,2668.00
2023-05-11T15:43:16.879Z,2916.00
2023-05-11T15:44:16.855Z,3136.00
2023-05-11T15:45:17.026Z,3320.00
2023-05-11T15:46:17.121Z,3464.00
2023-05-11T15:47:16.819Z,3528.00
2023-05-11T15:48:16.798Z,3544.00
2023-05-11T15:49:16.796Z,3564.00
2023-05-11T15:50:17.039Z,3632.00
2023-05-11T15:51:16.773Z,3708.00
2023-05-11T15:52:16.759Z,3752.00
2023-05-11T15:53:16.749Z,3740.00
2023-05-11T15:54:16.754Z,3716.00
2023-05-11T15:55:16.748Z,3684.00
2023-05-11T15:56:16.704Z,3692.00
2023-05-11T15:57:16.735Z,3688.00
2023-05-11T15:58:16.678Z,3680.00
2023-05-11T15:59:16.671Z,3656.00
2023-05-11T16:00:16.868Z,3628.00
2023-05-11T16:01:16.717Z,3564.00
2023-05-11T16:02:16.644Z,3500.00
2023-05-11T16:03:16.889Z,3432.00
2023-05-11T16:04:16.597Z,3140.00
2023-05-11T16:05:16.655Z,2976.00
2023-05-11T16:06:16.565Z,2816.00
2023-05-11T16:07:16.748Z,2732.00
2023-05-11T16:08:16.540Z,2480.00
2023-05-11T16:09:16.543Z,2164.00
2023-05-11T16:10:16.557Z,1936.00
2023-05-11T16:11:16.487Z,1732.00
2023-05-11T16:12:16.506Z,1656.00
2023-05-11T16:13:16.486Z,1648.00
2023-05-11T16:14:16.482Z,1636.00
2023-05-11T16:15:16.451Z,1640.00
2023-05-11T16:16:16.438Z,1660.00
2023-05-11T16:17:16.518Z,1700.00
2023-05-11T16:18:16.480Z,1732.00
2023-05-11T16:19:16.394Z,1828.00
2023-05-11T16:20:16.700Z,1916.00